Praia, Cape Verde
Current Conditions -  °F | °C
As of 1:00 AM on Sunday 26 Oct 2014 (Local Time) from GVNP Reporting Station
Scattered Clouds Scattered Clouds  
Wind Chill: 77°   Ceiling: Unl
Heat Index: 79°   Visibility: 6mi
Dew Point: 66°   Wind: 2mph
Humidity: 69%   Direction: 270°W
Pressure: 29.91"   Gusts: NA
Location:  14.93°N, 23.54°W
Report Text: GVNP 260200Z 27002KT 9999 FEW016 SCT200 25/19 Q1013 NOSIG
Loading
Personal Weather Stations






























Interactive Weather Map
Tropical Storm Tracking
New forecast layout! Learn more

10-Day Weather Forecast

Advertisements
Track Severe Weather on mobile